Airfield :
LOGIN :

Register | Disclaimer

   EN    FR    IT 

 










Legend :    VFR   Marginal VFR   IFR   Intensive IFR   Very Intensive IFR
Visi :
Ceiling :
>= 8 km
>= 3000ft
5 to 8 km
1000 to 3000 ft
1500m to 5 km
500 to 1000 ft
800 to 1500m
200 to 500 ft
< 800m
< 200 ft
Symbols :   Thunderstorms  Fog  Heavy snow  Heavy precipitations  Wind > 20 kt
SIGMETs :     Misc.  Thunderstorms  Icing  Turbulence  Mountain Waves  Volcanic Ashes







- Airport Elevation : 18 ft
- IATA code : AJA
- Download approach charts


LFKJ - Ajaccio

CURRENT METAR :
  • 160700Z AUTO VRB03KT 9999 -RA FEW058 BKN076 OVC094 17/15 Q1015 TEMPO SHRA FEW030 FEW035CB BKN040

EXPIRED METARs :
  • 160630Z AUTO 06003KT 020V090 8000 -RA FEW072/// OVC100/// ///TCU 16/15 Q1015 TEMPO SHRA FEW030 FEW035CB BKN040
  • 160600Z AUTO 05004KT 9000 BKN062/// OVC100/// ///TCU 16/15 Q1015 TEMPO SHRA FEW030 FEW035CB BKN040
  • 160530Z AUTO 03002KT 9999 -RA FEW058/// BKN100/// OVC120/// ///CB 16/15 Q1015 TEMPO SHRA
  • 160500Z AUTO 09002KT 9000 -RA ///TCU 17/15 Q1015 TEMPO SHRA FEW030 FEW035CB BKN040
  • 160430Z AUTO VRB02KT 8000 -RA FEW056/// OVC110/// ///TCU 17/15 Q1015 TEMPO SHRA FEW030 FEW035CB BKN040

TAF TAF LFKJ
Valid from the 16 at 03:00 until the 17 at 03:00 UTC


160200Z 1603/1703 05005KT 9999 FEW030 BKN080
PROB40
TEMPO 1603/1612 8000 SHRA FEW030 FEW035CB BKN040
ATIS : +33 4 95 23 59 85
No reported NOTAMs for that airfield.



MET'MAP, your aeronautical weather chart ! - Copyright ORBIFLY December 2007 - Disclaimer

ORBIFLY MET'MAP TEAM :

Programming & Development : Alexandra Zaïnal
Concept & Development : Baudouin d'Aumeries
Co-Development & Prog : Marc-Olivier Méhu
Technical & hardware support : Manuel Goepfert

Contact : metmap@orbifly.com




SOURCES & CREDITS :

   NOAA